createdAt,value
2019-06-07T00:00:29.688Z,0.80
2019-06-07T00:02:41.514Z,0.70
2019-06-07T00:05:10.237Z,0.73
2019-06-07T00:07:40.045Z,0.60
2019-06-07T00:10:09.390Z,0.77
2019-06-07T00:12:38.600Z,0.80
2019-06-07T00:15:11.733Z,0.80
2019-06-07T00:17:37.191Z,0.50
2019-06-07T00:20:11.014Z,0.60
2019-06-07T00:22:37.043Z,1.00
2019-06-07T00:25:12.462Z,0.63
2019-06-07T00:27:39.488Z,0.60
2019-06-07T00:30:32.493Z,0.50
2019-06-07T00:32:39.721Z,0.67
2019-06-07T00:35:09.207Z,0.70
2019-06-07T00:37:37.658Z,0.57
2019-06-07T00:40:18.614Z,0.53
2019-06-07T00:42:36.241Z,0.80
2019-06-07T00:45:06.757Z,0.67
2019-06-07T00:47:35.184Z,0.73
2019-06-07T00:50:04.403Z,0.50
2019-06-07T00:55:03.472Z,0.77
2019-06-07T00:57:31.945Z,0.70
2019-06-07T01:00:00.357Z,0.60
2019-06-07T01:02:31.375Z,0.60
2019-06-07T01:04:58.907Z,1.10
2019-06-07T01:07:27.302Z,0.60
2019-06-07T01:09:55.729Z,0.60
2019-06-07T01:12:26.873Z,1.00
2019-06-07T01:14:54.248Z,0.83
2019-06-07T01:17:41.131Z,0.60
2019-06-07T01:19:57.103Z,0.60
2019-06-07T01:22:28.891Z,0.77
2019-06-07T01:24:55.585Z,0.70
2019-06-07T01:27:25.535Z,0.90
2019-06-07T01:29:54.036Z,0.87
2019-06-07T01:32:24.692Z,0.50
2019-06-07T01:34:52.546Z,0.83
2019-06-07T01:37:25.037Z,0.73
2019-06-07T01:39:51.055Z,0.97
2019-06-07T01:42:20.434Z,0.70
2019-06-07T01:44:49.557Z,0.70
2019-06-07T01:47:20.353Z,0.70
2019-06-07T01:49:48.067Z,0.80
2019-06-07T01:52:16.639Z,1.00
2019-06-07T01:54:58.646Z,1.00
2019-06-07T01:57:30.926Z,0.63
2019-06-07T01:59:46.804Z,0.77
2019-06-07T02:02:15.234Z,0.70
2019-06-07T02:04:43.701Z,0.87
2019-06-07T02:07:12.112Z,0.60
2019-06-07T02:09:40.582Z,0.77
2019-06-07T02:12:24.984Z,0.63
2019-06-07T02:14:39.065Z,0.60
2019-06-07T02:17:07.485Z,0.70
2019-06-07T02:19:36.019Z,0.90
2019-06-07T02:22:04.443Z,1.00
2019-06-07T02:24:36.040Z,0.73
2019-06-07T02:27:02.992Z,0.57
2019-06-07T02:29:33.437Z,0.87
2019-06-07T02:32:01.483Z,0.83
2019-06-07T02:34:36.007Z,0.80
2019-06-07T02:36:59.995Z,0.90
2019-06-07T02:39:33.186Z,0.80
2019-06-07T02:41:58.529Z,0.60
2019-06-07T02:44:30.608Z,0.70
2019-06-07T02:46:57.034Z,1.00
2019-06-07T02:49:30.485Z,0.60
2019-06-07T02:51:55.588Z,0.50
2019-06-07T02:54:26.304Z,0.83
2019-06-07T02:56:58.651Z,0.67
2019-06-07T02:59:47.299Z,0.60
2019-06-07T03:01:54.533Z,0.77
2019-06-07T03:04:23.003Z,0.90
2019-06-07T03:06:51.843Z,0.70
2019-06-07T03:09:20.266Z,0.80
2019-06-07T03:11:48.718Z,0.90
2019-06-07T03:14:17.980Z,0.90
2019-06-07T03:16:53.855Z,0.73
2019-06-07T03:19:23.947Z,0.70
2019-06-07T03:21:53.402Z,0.70
2019-06-07T03:24:23.704Z,0.80
2019-06-07T03:29:22.741Z,0.90
2019-06-07T03:31:51.185Z,0.77
2019-06-07T03:34:19.633Z,0.63
2019-06-07T03:36:48.055Z,0.73
2019-06-07T03:39:16.472Z,0.80
2019-06-07T03:42:04.537Z,1.20
2019-06-07T03:44:15.039Z,0.87
2019-06-07T03:46:43.464Z,1.17
2019-06-07T03:49:11.987Z,1.03
2019-06-07T03:51:40.974Z,0.80
2019-06-07T03:54:09.537Z,0.90
2019-06-07T03:56:40.793Z,1.40
2019-06-07T03:59:08.058Z,0.70
2019-06-07T04:01:38.525Z,1.00
2019-06-07T04:04:06.603Z,0.80
2019-06-07T04:06:36.863Z,0.80
2019-06-07T04:09:06.648Z,1.17
2019-06-07T04:11:38.790Z,1.20
2019-06-07T04:14:05.155Z,0.90
2019-06-07T04:16:38.019Z,1.13
2019-06-07T04:19:03.682Z,0.70
2019-06-07T04:21:35.081Z,1.20
2019-06-07T04:24:02.512Z,0.70
2019-06-07T04:26:31.474Z,0.90
2019-06-07T04:29:32.408Z,1.00
2019-06-07T04:31:32.600Z,1.00
2019-06-07T04:34:01.193Z,1.10
2019-06-07T04:36:41.900Z,0.80
2019-06-07T04:39:00.821Z,1.00
2019-06-07T04:41:30.960Z,1.03
2019-06-07T04:44:00.303Z,1.30
2019-06-07T04:46:29.354Z,0.83
2019-06-07T04:48:58.125Z,1.03
2019-06-07T04:51:26.549Z,1.00
2019-06-07T04:53:54.967Z,1.10
2019-06-07T04:56:23.434Z,1.07
2019-06-07T04:58:51.860Z,1.00
2019-06-07T05:01:27.275Z,0.90
2019-06-07T05:03:50.382Z,1.40
2019-06-07T05:06:18.802Z,1.30
2019-06-07T05:08:47.221Z,1.00
2019-06-07T05:11:15.679Z,1.13
2019-06-07T05:13:44.249Z,1.50
2019-06-07T05:16:12.751Z,1.30
2019-06-07T05:18:43.133Z,1.00
2019-06-07T05:21:11.236Z,1.60
2019-06-07T05:24:05.816Z,1.60
2019-06-07T05:26:09.740Z,1.50
2019-06-07T05:28:42.323Z,1.23
2019-06-07T05:31:08.415Z,1.00
2019-06-07T05:33:38.435Z,1.30
2019-06-07T05:36:06.909Z,1.80
2019-06-07T05:38:36.131Z,1.30
2019-06-07T05:41:05.423Z,1.43
2019-06-07T05:43:34.927Z,1.20
2019-06-07T05:46:04.356Z,1.10
2019-06-07T05:48:34.134Z,1.20
2019-06-07T05:51:02.592Z,1.60
2019-06-07T05:53:31.700Z,1.10
2019-06-07T05:56:01.260Z,1.13
2019-06-07T05:58:30.034Z,1.17
2019-06-07T06:01:41.053Z,1.23
2019-06-07T06:03:28.552Z,1.20
2019-06-07T06:05:56.972Z,1.47
2019-06-07T06:08:26.018Z,1.30
2019-06-07T06:10:54.483Z,1.27
2019-06-07T06:13:22.898Z,1.30
2019-06-07T06:16:01.388Z,1.30
2019-06-07T06:18:21.432Z,1.13
2019-06-07T06:21:09.692Z,1.37
2019-06-07T06:23:19.905Z,1.50
2019-06-07T06:25:55.823Z,1.03
2019-06-07T06:28:18.404Z,1.07
2019-06-07T06:30:49.449Z,1.43
2019-06-07T06:33:33.117Z,1.40
2019-06-07T06:35:50.476Z,1.70
2019-06-07T06:38:17.620Z,1.67
2019-06-07T06:40:48.948Z,1.33
2019-06-07T06:43:16.148Z,1.80
2019-06-07T06:45:47.855Z,2.43
2019-06-07T06:48:15.031Z,2.70
2019-06-07T06:50:44.459Z,2.70
2019-06-07T06:53:13.522Z,2.40
2019-06-07T06:55:43.803Z,2.50
2019-06-07T06:58:12.018Z,2.20
2019-06-07T07:00:58.914Z,2.40
2019-06-07T07:03:55.985Z,2.77
2019-06-07T07:05:51.994Z,2.23
2019-06-07T07:08:18.978Z,2.60
2019-06-07T07:10:51.137Z,2.37
2019-06-07T07:13:17.464Z,2.50
2019-06-07T07:15:50.140Z,1.93
2019-06-07T07:18:16.007Z,1.87
2019-06-07T07:20:45.889Z,2.73
2019-06-07T07:23:14.579Z,2.40
2019-06-07T07:25:46.044Z,2.90
2019-06-07T07:28:13.450Z,2.40
2019-06-07T07:30:47.375Z,2.00
2019-06-07T07:33:16.864Z,2.60
2019-06-07T07:36:09.600Z,2.80
2019-06-07T07:38:15.511Z,2.77
2019-06-07T07:43:14.260Z,3.33
2019-06-07T07:45:45.905Z,2.53
2019-06-07T07:48:17.870Z,2.40
2019-06-07T07:50:45.131Z,2.83
2019-06-07T07:53:12.938Z,2.40
2019-06-07T07:55:41.359Z,2.60
2019-06-07T07:58:09.796Z,2.63
2019-06-07T08:00:52.352Z,2.90
2019-06-07T08:03:08.343Z,3.00
2019-06-07T08:05:43.043Z,2.90
2019-06-07T08:08:07.828Z,2.97
2019-06-07T08:10:36.523Z,2.43
2019-06-07T08:13:23.291Z,2.27
2019-06-07T08:15:35.064Z,2.30
2019-06-07T08:18:04.621Z,2.40
2019-06-07T08:20:33.295Z,2.97
2019-06-07T08:23:01.733Z,2.80
2019-06-07T08:25:30.163Z,2.77
2019-06-07T08:27:59.128Z,2.57
2019-06-07T08:33:20.194Z,3.10
2019-06-07T08:36:03.810Z,2.93
2019-06-07T08:40:28.523Z,2.83
2019-06-07T08:43:15.552Z,2.30
2019-06-07T08:45:27.044Z,2.37
2019-06-07T08:47:58.161Z,3.27
2019-06-07T08:50:26.094Z,2.70
2019-06-07T08:53:00.054Z,2.37
2019-06-07T08:55:24.619Z,2.60
2019-06-07T08:57:57.633Z,2.60
2019-06-07T09:00:45.227Z,2.50
2019-06-07T09:02:54.971Z,3.10
2019-06-07T09:05:23.377Z,2.73
2019-06-07T09:08:13.517Z,3.03
2019-06-07T09:10:21.878Z,2.40
2019-06-07T09:12:50.305Z,2.80
2019-06-07T09:15:23.157Z,2.90
2019-06-07T09:20:35.690Z,2.90
2019-06-07T09:22:50.694Z,2.33
2019-06-07T09:25:21.665Z,2.33
2019-06-07T09:27:49.515Z,2.60
2019-06-07T09:30:21.215Z,2.70
2019-06-07T09:32:49.983Z,2.60
2019-06-07T09:35:18.423Z,2.50
2019-06-07T09:38:07.627Z,2.43
2019-06-07T09:40:27.576Z,2.30
2019-06-07T09:43:38.554Z,2.93
2019-06-07T09:45:22.038Z,3.00
2019-06-07T09:47:50.591Z,2.77
2019-06-07T09:50:19.017Z,2.37
2019-06-07T09:52:58.423Z,2.13
2019-06-07T09:55:24.326Z,2.10
2019-06-07T09:57:47.619Z,1.90
2019-06-07T10:00:39.791Z,1.90
2019-06-07T10:02:46.209Z,2.50
2019-06-07T10:05:15.039Z,2.13
2019-06-07T10:07:59.908Z,2.50
2019-06-07T10:12:43.926Z,2.20
2019-06-07T10:15:12.367Z,2.30
2019-06-07T10:17:40.809Z,2.60
2019-06-07T10:20:09.881Z,2.30
2019-06-07T10:22:38.464Z,2.47
2019-06-07T10:25:08.336Z,2.27
2019-06-07T10:27:36.966Z,2.40
2019-06-07T10:30:08.061Z,2.40
2019-06-07T10:32:36.655Z,2.00
2019-06-07T10:35:07.550Z,2.37
2019-06-07T10:37:36.257Z,2.40
2019-06-07T10:40:09.084Z,2.50
2019-06-07T10:42:38.168Z,2.60
2019-06-07T10:45:08.250Z,2.53
2019-06-07T10:47:37.274Z,2.50
2019-06-07T10:50:06.032Z,2.50
2019-06-07T10:52:34.468Z,2.47
2019-06-07T10:55:04.462Z,2.33
2019-06-07T10:57:33.087Z,2.00
2019-06-07T11:00:03.353Z,2.30
2019-06-07T11:02:31.720Z,2.57
2019-06-07T11:05:00.175Z,2.40
2019-06-07T11:07:29.000Z,2.50
2019-06-07T11:10:07.344Z,2.27
2019-06-07T11:12:29.247Z,2.63
2019-06-07T11:14:57.711Z,1.80
2019-06-07T11:17:27.254Z,1.60
2019-06-07T11:19:55.671Z,2.10
2019-06-07T11:22:24.132Z,1.70
2019-06-07T11:24:52.565Z,2.27
2019-06-07T11:27:21.009Z,2.63
2019-06-07T11:29:49.406Z,2.63
2019-06-07T11:32:18.866Z,1.93
2019-06-07T11:34:47.379Z,2.03
2019-06-07T11:37:19.074Z,1.93
2019-06-07T11:39:45.883Z,1.80
2019-06-07T11:42:14.374Z,1.33
2019-06-07T11:44:56.204Z,1.83
2019-06-07T11:47:14.426Z,2.37
2019-06-07T11:49:43.020Z,2.43
2019-06-07T11:52:11.441Z,1.93
2019-06-07T11:54:39.950Z,1.90
2019-06-07T11:57:08.859Z,2.47
2019-06-07T11:59:37.294Z,2.37
2019-06-07T12:02:07.013Z,2.23
2019-06-07T12:04:35.611Z,2.60
2019-06-07T12:07:05.834Z,2.30
2019-06-07T12:09:34.279Z,2.50
2019-06-07T12:12:04.571Z,2.10
2019-06-07T12:14:32.960Z,2.03
2019-06-07T12:17:01.450Z,2.00
2019-06-07T12:19:29.875Z,2.17
2019-06-07T12:21:58.379Z,2.70
2019-06-07T12:24:26.806Z,2.93
2019-06-07T12:26:55.218Z,1.87
2019-06-07T12:29:23.665Z,2.17
2019-06-07T12:31:52.115Z,1.60
2019-06-07T12:34:21.642Z,2.13
2019-06-07T12:36:50.278Z,2.53
2019-06-07T12:39:18.694Z,2.00
2019-06-07T12:41:47.166Z,2.53
2019-06-07T12:44:16.576Z,1.63
2019-06-07T12:46:45.211Z,1.90
2019-06-07T12:49:14.894Z,2.47
2019-06-07T12:51:43.742Z,2.10
2019-06-07T12:54:13.267Z,1.93
2019-06-07T12:56:41.870Z,1.97
2019-06-07T12:59:10.311Z,2.50
2019-06-07T13:01:38.796Z,2.37
2019-06-07T13:04:07.309Z,2.43
2019-06-07T13:06:35.833Z,2.43
2019-06-07T13:09:05.222Z,2.43
2019-06-07T13:11:33.621Z,2.87
2019-06-07T13:14:02.170Z,2.30
2019-06-07T13:16:31.007Z,1.87
2019-06-07T13:18:59.416Z,2.20
2019-06-07T13:21:28.626Z,2.67
2019-06-07T13:23:57.217Z,2.60
2019-06-07T13:26:26.095Z,2.67
2019-06-07T13:28:54.542Z,1.70
2019-06-07T13:31:23.391Z,1.73
2019-06-07T13:33:51.918Z,2.30
2019-06-07T13:36:20.359Z,2.70
2019-06-07T13:38:48.782Z,2.67
2019-06-07T13:41:30.204Z,2.30
2019-06-07T13:43:51.186Z,2.73
2019-06-07T13:46:18.861Z,2.47
2019-06-07T13:48:47.927Z,2.20
2019-06-07T13:51:18.370Z,2.27
2019-06-07T13:53:46.552Z,2.20
2019-06-07T13:56:14.978Z,1.67
2019-06-07T13:58:43.415Z,2.10
2019-06-07T14:01:11.833Z,2.40
2019-06-07T14:03:40.256Z,2.50
2019-06-07T14:06:08.704Z,2.40
2019-06-07T14:08:37.122Z,1.57
2019-06-07T14:11:05.641Z,1.87
2019-06-07T14:13:34.136Z,2.50
2019-06-07T14:16:03.736Z,2.40
2019-06-07T14:18:32.114Z,2.17
2019-06-07T14:21:00.674Z,2.00
2019-06-07T14:23:45.899Z,2.20
2019-06-07T14:25:59.170Z,2.00
2019-06-07T14:28:30.827Z,1.90
2019-06-07T14:30:58.087Z,1.50
2019-06-07T14:33:28.300Z,1.20
2019-06-07T14:35:56.608Z,1.90
2019-06-07T14:38:27.145Z,2.30
2019-06-07T14:40:55.726Z,2.20
2019-06-07T14:43:25.110Z,2.23
2019-06-07T14:45:53.594Z,2.17
2019-06-07T14:48:22.025Z,1.83
2019-06-07T14:50:50.491Z,2.00
2019-06-07T14:53:18.921Z,2.40
2019-06-07T14:55:47.338Z,1.47
2019-06-07T14:58:15.794Z,1.83
2019-06-07T15:00:44.578Z,2.33
2019-06-07T15:03:13.013Z,2.37
2019-06-07T15:05:41.472Z,1.90
2019-06-07T15:08:09.897Z,2.10
2019-06-07T15:10:39.265Z,1.80
2019-06-07T15:13:07.866Z,2.50
2019-06-07T15:15:36.291Z,1.73
2019-06-07T15:18:04.727Z,1.70
2019-06-07T15:20:34.100Z,2.30
2019-06-07T15:23:02.739Z,2.20
2019-06-07T15:25:31.237Z,2.53
2019-06-07T15:27:59.766Z,1.50
2019-06-07T15:30:29.497Z,1.77
2019-06-07T15:32:59.739Z,2.30
2019-06-07T15:35:28.218Z,2.07
2019-06-07T15:37:56.636Z,2.40
2019-06-07T15:40:25.054Z,2.23
2019-06-07T15:42:53.533Z,1.80
2019-06-07T15:45:22.006Z,1.67
2019-06-07T15:47:50.434Z,2.23
2019-06-07T15:50:18.888Z,2.00
2019-06-07T15:52:47.381Z,2.33
2019-06-07T15:55:15.792Z,2.17
2019-06-07T15:57:44.263Z,1.93
2019-06-07T16:00:14.124Z,2.00
2019-06-07T16:02:42.556Z,2.23
2019-06-07T16:05:11.169Z,2.20
2019-06-07T16:07:40.521Z,2.10
2019-06-07T16:10:09.208Z,2.37
2019-06-07T16:12:38.756Z,2.10
2019-06-07T16:15:10.742Z,2.10
2019-06-07T16:17:39.269Z,1.90
2019-06-07T16:20:08.391Z,1.80
2019-06-07T16:22:37.615Z,2.10
2019-06-07T16:25:06.815Z,2.33
2019-06-07T16:27:36.798Z,2.03
2019-06-07T16:30:10.178Z,1.70
2019-06-07T16:32:39.362Z,1.80
2019-06-07T16:35:08.386Z,2.30
2019-06-07T16:37:38.267Z,2.13
2019-06-07T16:40:10.634Z,2.50
2019-06-07T16:42:40.443Z,2.37
2019-06-07T16:45:09.953Z,2.30
2019-06-07T16:47:40.336Z,2.17
2019-06-07T16:50:08.951Z,1.70
2019-06-07T16:52:37.377Z,2.00
2019-06-07T16:55:06.674Z,2.70
2019-06-07T16:57:36.553Z,2.17
2019-06-07T17:00:12.038Z,1.93
2019-06-07T17:02:40.482Z,2.40
2019-06-07T17:05:08.968Z,2.73
2019-06-07T17:07:38.340Z,2.20
2019-06-07T17:10:08.548Z,3.10
2019-06-07T17:12:38.338Z,2.17
2019-06-07T17:15:07.750Z,2.83
2019-06-07T17:17:36.201Z,2.20
2019-06-07T17:20:07.341Z,2.53
2019-06-07T17:22:35.767Z,2.57
2019-06-07T17:25:06.069Z,2.10
2019-06-07T17:27:34.489Z,2.13
2019-06-07T17:30:04.288Z,1.83
2019-06-07T17:32:47.672Z,2.93
2019-06-07T17:35:02.816Z,2.40
2019-06-07T17:37:31.241Z,3.00
2019-06-07T17:39:59.725Z,2.27
2019-06-07T17:42:28.157Z,2.57
2019-06-07T17:44:56.647Z,2.93
2019-06-07T17:47:25.107Z,2.83
2019-06-07T17:49:53.527Z,3.10
2019-06-07T17:52:21.943Z,2.90
2019-06-07T17:54:50.396Z,2.93
2019-06-07T17:57:18.827Z,3.07
2019-06-07T17:59:48.490Z,3.50
2019-06-07T18:02:16.990Z,3.20
2019-06-07T18:04:45.416Z,3.00
2019-06-07T18:07:13.850Z,2.80
2019-06-07T18:09:43.297Z,2.93
2019-06-07T18:12:11.835Z,2.40
2019-06-07T18:14:40.237Z,2.40
2019-06-07T18:17:08.671Z,2.63
2019-06-07T18:19:37.101Z,1.77
2019-06-07T18:22:05.520Z,2.20
2019-06-07T18:24:34.041Z,2.63
2019-06-07T18:27:02.472Z,2.23
2019-06-07T18:29:30.892Z,2.37
2019-06-07T18:32:00.323Z,2.17
2019-06-07T18:34:28.919Z,2.27
2019-06-07T18:36:57.367Z,2.07
2019-06-07T18:39:25.810Z,3.27
2019-06-07T18:41:55.418Z,5.20
2019-06-07T18:44:24.032Z,4.83
2019-06-07T18:46:52.467Z,3.63
2019-06-07T18:49:20.903Z,3.27
2019-06-07T18:51:52.356Z,2.50
2019-06-07T18:54:21.414Z,2.93
2019-06-07T18:56:50.753Z,2.30
2019-06-07T18:59:19.177Z,1.87
2019-06-07T19:01:47.623Z,1.53
2019-06-07T19:04:16.039Z,2.40
2019-06-07T19:06:44.468Z,1.30
2019-06-07T19:09:12.919Z,1.80
2019-06-07T19:11:41.351Z,1.77
2019-06-07T19:14:09.764Z,1.80
2019-06-07T19:16:38.552Z,1.40
2019-06-07T19:19:06.989Z,1.47
2019-06-07T19:21:35.413Z,1.40
2019-06-07T19:24:03.871Z,1.77
2019-06-07T19:26:32.295Z,1.30
2019-06-07T19:29:00.960Z,1.30
2019-06-07T19:31:29.389Z,1.27
2019-06-07T19:33:57.796Z,1.57
2019-06-07T19:36:26.221Z,1.23
2019-06-07T19:38:55.823Z,2.23
2019-06-07T19:41:24.396Z,2.23
2019-06-07T19:43:53.968Z,1.80
2019-06-07T19:46:22.559Z,1.50
2019-06-07T19:48:51.031Z,1.63
2019-06-07T19:51:20.641Z,1.60
2019-06-07T19:53:49.104Z,1.57
2019-06-07T19:56:17.543Z,1.60
2019-06-07T19:58:45.964Z,1.40
2019-06-07T20:01:14.399Z,1.40
2019-06-07T20:03:42.809Z,1.40
2019-06-07T20:06:11.248Z,1.53
2019-06-07T20:08:39.700Z,1.60
2019-06-07T20:11:08.123Z,1.77
2019-06-07T20:13:36.535Z,1.43
2019-06-07T20:16:05.168Z,1.70
2019-06-07T20:18:33.578Z,1.50
2019-06-07T20:21:02.668Z,1.83
2019-06-07T20:23:31.153Z,1.97
2019-06-07T20:26:00.131Z,1.53
2019-06-07T20:28:28.980Z,1.37
2019-06-07T20:30:57.688Z,1.70
2019-06-07T20:33:26.342Z,1.30
2019-06-07T20:35:54.767Z,1.80
2019-06-07T20:38:23.207Z,2.57
2019-06-07T20:40:51.623Z,2.27
2019-06-07T20:43:20.044Z,1.80
2019-06-07T20:45:48.497Z,1.77
2019-06-07T20:48:16.944Z,2.00
2019-06-07T20:50:45.351Z,2.23
2019-06-07T20:53:13.796Z,1.70
2019-06-07T20:55:42.224Z,1.97
2019-06-07T20:58:10.639Z,1.37
2019-06-07T21:00:39.088Z,1.57
2019-06-07T21:03:07.550Z,1.63
2019-06-07T21:05:35.928Z,2.23
2019-06-07T21:08:08.111Z,1.83
2019-06-07T21:10:34.454Z,2.17
2019-06-07T21:13:03.889Z,1.67
2019-06-07T21:15:45.604Z,2.13
2019-06-07T21:18:03.860Z,2.00
2019-06-07T21:20:34.086Z,2.03
2019-06-07T21:23:02.815Z,1.63
2019-06-07T21:25:31.284Z,2.90
2019-06-07T21:28:00.844Z,2.40
2019-06-07T21:30:30.937Z,1.53
2019-06-07T21:32:59.365Z,2.10
2019-06-07T21:35:27.771Z,1.73
2019-06-07T21:37:56.241Z,1.63
2019-06-07T21:40:24.657Z,2.90
2019-06-07T21:42:53.063Z,2.10
2019-06-07T21:45:21.562Z,1.90
2019-06-07T21:47:49.947Z,1.50
2019-06-07T21:50:18.456Z,2.10
2019-06-07T21:52:46.905Z,1.60
2019-06-07T21:55:15.348Z,2.27
2019-06-07T21:57:43.765Z,2.70
2019-06-07T22:00:18.527Z,2.70
2019-06-07T22:02:46.988Z,1.70
2019-06-07T22:05:15.521Z,1.80
2019-06-07T22:07:43.932Z,2.10
2019-06-07T22:10:12.623Z,1.90
2019-06-07T22:12:41.156Z,1.90
2019-06-07T22:15:24.414Z,1.80
2019-06-07T22:17:39.777Z,1.80
2019-06-07T22:20:08.793Z,1.90
2019-06-07T22:22:37.286Z,1.60
2019-06-07T22:25:09.244Z,1.67
2019-06-07T22:27:37.840Z,1.20
2019-06-07T22:30:08.579Z,1.77
2019-06-07T22:32:37.167Z,1.27
2019-06-07T22:35:06.701Z,1.33
2019-06-07T22:37:35.497Z,1.70
2019-06-07T22:40:06.313Z,1.90
2019-06-07T22:42:34.776Z,1.50
2019-06-07T22:45:03.711Z,2.10
2019-06-07T22:47:32.126Z,2.40
2019-06-07T22:50:00.553Z,2.20
2019-06-07T22:52:29.007Z,2.17
2019-06-07T22:54:57.429Z,2.10
2019-06-07T22:57:27.502Z,2.30
2019-06-07T22:59:55.961Z,2.10
2019-06-07T23:02:24.380Z,1.63
2019-06-07T23:04:53.148Z,2.00
2019-06-07T23:07:21.604Z,1.90
2019-06-07T23:09:50.108Z,1.77
2019-06-07T23:12:19.576Z,1.97
2019-06-07T23:14:48.166Z,1.90
2019-06-07T23:17:17.709Z,1.83
2019-06-07T23:19:46.406Z,1.67
2019-06-07T23:22:16.061Z,1.70
2019-06-07T23:24:44.494Z,2.13
2019-06-07T23:27:14.335Z,2.03
2019-06-07T23:29:42.860Z,1.87
2019-06-07T23:32:12.522Z,1.73
2019-06-07T23:34:41.118Z,2.00
2019-06-07T23:37:10.862Z,1.97
2019-06-07T23:39:39.479Z,2.10
2019-06-07T23:42:07.908Z,1.97
2019-06-07T23:44:36.360Z,2.40
2019-06-07T23:47:11.110Z,1.80
2019-06-07T23:49:34.834Z,2.40
2019-06-07T23:52:03.285Z,2.30
2019-06-07T23:54:31.714Z,1.70
2019-06-07T23:57:00.137Z,2.10
2019-06-07T23:59:30.364Z,1.90
